Flint, MI (48553)

12:22 AM EDT on September 22, 2014 (GMT -0400)
Dave Grand Blanc | Change Station
CLOSE
Current Station
Personal Weather Station
Location: Grand Blanc, MI
Elevation: 797 ft
Nearby Weather Stations

Elev 797 ft 42.95 °N, 83.67 °W | Updated 10 seconds ago

Overcast
Overcast
49.1 °F
Feels Like 47 °F
N
4.5
Wind Variable Wind from NNW
Gusts 6.5 mph

Today
High -- | Low -- °F
--% Chance of Precip.
Yesterday
High -- | Low -- °F
Precip. -- in
7:22 AM 7:32 PM
Waning Crescent, 4% visible
Pressure 30.04 in
Visibility 10.0 miles
Clouds Overcast 3600 ft
Windchill 47 °F
Dew Point 42 °F
Humidity 75%
Rainfall 0.00 in
Snow Depth Not available.
UV 0 out of 12
Pollen .50 out of 12
Ozone Good
PM2.5 Good
Flu Activity Not available.
METAR KFNT 220353Z AUTO 33012KT 10SM OVC036 10/04 A3004 RMK AO2 SLP173 T01000039

More Conditions Fewer Conditions

Pressure 30.04 in
Visibility 10.0 miles
Clouds Overcast 3600 ft
Windchill 47 °F
Dew Point 42 °F
Humidity 75%
Rainfall 0.00 in
Snow Depth Not available.
UV 0 out of 12
Pollen .50 out of 12
Ozone Good
PM2.5 Good
Flu Activity Not available.
METAR KFNT 220353Z AUTO 33012KT 10SM OVC036 10/04 A3004 RMK AO2 SLP173 T01000039

More Conditions Fewer Conditions

10-Day Weather Forecast

Almanac

Astronomy

Sep. 22, 2014 Rise Set
Actual Time 7:22 AM EDT 7:32 PM EDT
Civil Twilight 6:53 AM EDT 8:00 PM EDT
Nautical Twilight 6:20 AM EDT 8:33 PM EDT
Astronomical Twilight 5:46 AM EDT 9:07 PM EDT
Moon 5:48 AM EDT 6:40 PM EDT
Length of Visible Light 13h 06m
Length of Day
12h 10m
Tomorrow will be 2m 54s shorter.
Waning Crescent, 4% of the Moon is Illuminated
Today
Waning Crescent
Sep 24
New
Oct 1
First Quarter
Oct 8
Full
Oct 15
Last Quarter

Yesterday's Extremes

State Highs State Lows

Community

WunderPhotos

Upload Photos

1,755,384 photos uploaded!

Nearby

Air Quality

  Air Quality AQ Index Pollutant
Yesterday Good
PM2.5
Yesterday Good
OZONE
Current Good
PM2.5
Current Good
OZONE
Sunday Good
OZONE
Sunday Good
PM2.5
Monday Good
OZONE
Monday Good
PM2.5

Snow Depth

Station Depth Elevation
No new snow has been reported.

Earthquake Activity

City Distance Mag. Time & Date
No recent earthquake activity has been reported nearby.
Minimum magnitude displayed is 2.5.

Coastal Water Temperatures

Place Temperature
No Stations Reporting

Nearby Weather Stations